DLH3X EDDM-EDDB
Flight info
| Callsign | DLH3X |
|---|---|
| Flight time | 0h 43m |
| Altitude | 30000 |
| Route | AKINI1N AKINI Y104 MAMOR L132 RUDNO T203 TIVDA DCT ETVIS DCT NAVEK DCT GAVLI T203 ATGUP ATGUP1R |
| Aircraft | A320/M-SDE3FGHIRWY/LB1 |
Departure
| Time | 2026-05-07 05:29 |
|---|---|
| Airport | Munich Airport (EDDM) |
Arrival
| Time | 2026-05-07 06:13 |
|---|---|
| Airport | Berlin Brandenburg Airport (EDDB) |
| Time | Latitude | Longitude | Altitude | Speed | Heading |
|---|---|---|---|---|---|
| 2026-05-07 05:04 | 48.35355 | 11.79326 | 1471 ft | 0 kts | 263° |
| 2026-05-07 05:13 | 48.35356 | 11.79345 | 1471 ft | 4 kts | 263° |
| 2026-05-07 05:14 | 48.35359 | 11.79385 | 1474 ft | 4 kts | 263° |
| 2026-05-07 05:14 | 48.35362 | 11.79417 | 1477 ft | 4 kts | 268° |
| 2026-05-07 05:14 | 48.35358 | 11.79454 | 1474 ft | 4 kts | 306° |
| 2026-05-07 05:14 | 48.35339 | 11.79474 | 1477 ft | 3 kts | 353° |
| 2026-05-07 05:15 | 48.35321 | 11.79477 | 1475 ft | 0 kts | 353° |
| 2026-05-07 05:17 | 48.35398 | 11.79464 | 1485 ft | 21 kts | 353° |
| 2026-05-07 05:17 | 48.35552 | 11.79437 | 1485 ft | 21 kts | 354° |
| 2026-05-07 05:17 | 48.35679 | 11.79416 | 1477 ft | 12 kts | 356° |
| 2026-05-07 05:17 | 48.35757 | 11.79403 | 1483 ft | 10 kts | 353° |
| 2026-05-07 05:18 | 48.35824 | 11.79391 | 1483 ft | 10 kts | 352° |
| 2026-05-07 05:18 | 48.36078 | 11.79226 | 1477 ft | 14 kts | 62° |
| 2026-05-07 05:19 | 48.36098 | 11.79361 | 1485 ft | 12 kts | 83° |
| 2026-05-07 05:19 | 48.36140 | 11.79940 | 1477 ft | 32 kts | 81° |
| 2026-05-07 05:20 | 48.36169 | 11.80280 | 1481 ft | 33 kts | 84° |
| 2026-05-07 05:20 | 48.36195 | 11.80630 | 1478 ft | 34 kts | 83° |
| 2026-05-07 05:20 | 48.36221 | 11.80990 | 1485 ft | 35 kts | 84° |
| 2026-05-07 05:20 | 48.36250 | 11.81359 | 1483 ft | 36 kts | 83° |
| 2026-05-07 05:21 | 48.36281 | 11.81736 | 1479 ft | 36 kts | 83° |
| 2026-05-07 05:21 | 48.36454 | 11.82295 | 1478 ft | 1 kts | 4° |
| 2026-05-07 05:21 | 48.36497 | 11.82293 | 1485 ft | 8 kts | 352° |
| 2026-05-07 05:22 | 48.36501 | 11.82292 | 1477 ft | 0 kts | 352° |
| 2026-05-07 05:24 | 48.36502 | 11.82291 | 1485 ft | 2 kts | 352° |
| 2026-05-07 05:24 | 48.36577 | 11.82239 | 1475 ft | 17 kts | 313° |
| 2026-05-07 05:24 | 48.36647 | 11.82108 | 1475 ft | 15 kts | 311° |
| 2026-05-07 05:24 | 48.36677 | 11.82000 | 1485 ft | 9 kts | 271° |
| 2026-05-07 05:25 | 48.36677 | 11.81991 | 1485 ft | 0 kts | 266° |
| 2026-05-07 05:28 | 48.36676 | 11.81976 | 1485 ft | 8 kts | 266° |
| 2026-05-07 05:28 | 48.36643 | 11.81503 | 1479 ft | 82 kts | 263° |
| 2026-05-07 05:29 | 48.36551 | 11.80348 | 1477 ft | 138 kts | 263° |
| 2026-05-07 05:29 | 48.36422 | 11.78737 | 1771 ft | 161 kts | 262° |
| 2026-05-07 05:29 | 48.36288 | 11.76986 | 2278 ft | 179 kts | 263° |
| 2026-05-07 05:29 | 48.36136 | 11.75014 | 2689 ft | 201 kts | 263° |
| 2026-05-07 05:30 | 48.35978 | 11.72891 | 3426 ft | 211 kts | 265° |
| 2026-05-07 05:30 | 48.36264 | 11.70617 | 3953 ft | 236 kts | 296° |
| 2026-05-07 05:30 | 48.37474 | 11.68872 | 4820 ft | 254 kts | 327° |
| 2026-05-07 05:30 | 48.39214 | 11.68099 | 5742 ft | 270 kts | 352° |
| 2026-05-07 05:31 | 48.41109 | 11.68631 | 6632 ft | 287 kts | 17° |
| 2026-05-07 05:31 | 48.42958 | 11.69808 | 7512 ft | 291 kts | 19° |
| 2026-05-07 05:31 | 48.44824 | 11.71049 | 8373 ft | 296 kts | 20° |
| 2026-05-07 05:31 | 48.46723 | 11.72331 | 9244 ft | 301 kts | 20° |
| 2026-05-07 05:32 | 48.48641 | 11.73627 | 10103 ft | 305 kts | 21° |
| 2026-05-07 05:32 | 48.50650 | 11.74975 | 10445 ft | 328 kts | 21° |
| 2026-05-07 05:32 | 48.52820 | 11.76420 | 10757 ft | 349 kts | 21° |
| 2026-05-07 05:32 | 48.55066 | 11.77915 | 11408 ft | 357 kts | 21° |
| 2026-05-07 05:33 | 48.57348 | 11.79438 | 12159 ft | 361 kts | 21° |
| 2026-05-07 05:33 | 48.59634 | 11.80964 | 12917 ft | 365 kts | 21° |
| 2026-05-07 05:33 | 48.61999 | 11.82543 | 13674 ft | 369 kts | 21° |
| 2026-05-07 05:33 | 48.64338 | 11.84099 | 14338 ft | 373 kts | 21° |
| 2026-05-07 05:34 | 48.66719 | 11.85685 | 15024 ft | 376 kts | 22° |
| 2026-05-07 05:34 | 48.69113 | 11.87287 | 15726 ft | 379 kts | 22° |
| 2026-05-07 05:34 | 48.71534 | 11.88914 | 16411 ft | 383 kts | 23° |
| 2026-05-07 05:34 | 48.73982 | 11.90559 | 17100 ft | 386 kts | 23° |
| 2026-05-07 05:35 | 48.76439 | 11.92207 | 17772 ft | 389 kts | 23° |
| 2026-05-07 05:35 | 48.78932 | 11.93877 | 18384 ft | 392 kts | 23° |
| 2026-05-07 05:35 | 48.81434 | 11.95554 | 18941 ft | 395 kts | 23° |
| 2026-05-07 05:35 | 48.83965 | 11.97255 | 19467 ft | 400 kts | 23° |
| 2026-05-07 05:36 | 48.86518 | 11.98976 | 19986 ft | 404 kts | 24° |
| 2026-05-07 05:36 | 48.89092 | 12.00715 | 20501 ft | 407 kts | 24° |
| 2026-05-07 05:36 | 48.91695 | 12.02479 | 21001 ft | 411 kts | 24° |
| 2026-05-07 05:36 | 48.94331 | 12.04266 | 21517 ft | 415 kts | 24° |
| 2026-05-07 05:37 | 48.96974 | 12.06057 | 22020 ft | 418 kts | 24° |
| 2026-05-07 05:37 | 48.99647 | 12.07867 | 22495 ft | 422 kts | 24° |
| 2026-05-07 05:37 | 49.02336 | 12.09689 | 22970 ft | 426 kts | 24° |
| 2026-05-07 05:37 | 49.05059 | 12.11538 | 23438 ft | 429 kts | 24° |
| 2026-05-07 05:38 | 49.07795 | 12.13402 | 23843 ft | 433 kts | 24° |
| 2026-05-07 05:38 | 49.10559 | 12.15285 | 24214 ft | 437 kts | 24° |
| 2026-05-07 05:38 | 49.13337 | 12.17180 | 24648 ft | 438 kts | 24° |
| 2026-05-07 05:38 | 49.16133 | 12.19090 | 25020 ft | 442 kts | 24° |
| 2026-05-07 05:39 | 49.18952 | 12.21019 | 25380 ft | 445 kts | 24° |
| 2026-05-07 05:39 | 49.21755 | 12.22939 | 25717 ft | 449 kts | 24° |
| 2026-05-07 05:39 | 49.24613 | 12.24896 | 26045 ft | 453 kts | 24° |
| 2026-05-07 05:39 | 49.27495 | 12.26871 | 26387 ft | 456 kts | 24° |
| 2026-05-07 05:40 | 49.30412 | 12.28871 | 26728 ft | 460 kts | 24° |
| 2026-05-07 05:40 | 49.33343 | 12.30885 | 27103 ft | 462 kts | 24° |
| 2026-05-07 05:40 | 49.36283 | 12.32913 | 27473 ft | 465 kts | 24° |
| 2026-05-07 05:40 | 49.39241 | 12.34955 | 27805 ft | 468 kts | 24° |
| 2026-05-07 05:41 | 49.42224 | 12.37017 | 28139 ft | 472 kts | 25° |
| 2026-05-07 05:41 | 49.45228 | 12.39097 | 28461 ft | 475 kts | 25° |
| 2026-05-07 05:41 | 49.48255 | 12.41195 | 28754 ft | 479 kts | 25° |
| 2026-05-07 05:41 | 49.51299 | 12.43306 | 29079 ft | 482 kts | 25° |
| 2026-05-07 05:42 | 49.54370 | 12.45435 | 29344 ft | 486 kts | 24° |
| 2026-05-07 05:42 | 49.57467 | 12.47581 | 29606 ft | 490 kts | 24° |
| 2026-05-07 05:42 | 49.60586 | 12.49747 | 29850 ft | 493 kts | 25° |
| 2026-05-07 05:43 | 49.65842 | 12.53418 | 29905 ft | 506 kts | 25° |
| 2026-05-07 05:43 | 49.73398 | 12.58726 | 29908 ft | 519 kts | 25° |
| 2026-05-07 05:44 | 49.79975 | 12.63339 | 29901 ft | 518 kts | 25° |
| 2026-05-07 05:44 | 49.85434 | 12.67171 | 29895 ft | 517 kts | 25° |
| 2026-05-07 05:45 | 49.91992 | 12.71799 | 29888 ft | 517 kts | 25° |
| 2026-05-07 05:45 | 49.98583 | 12.76470 | 29902 ft | 517 kts | 25° |
| 2026-05-07 05:46 | 50.05073 | 12.81083 | 29897 ft | 516 kts | 25° |
| 2026-05-07 05:46 | 50.11614 | 12.85741 | 29895 ft | 515 kts | 25° |
| 2026-05-07 05:47 | 50.18120 | 12.90381 | 29873 ft | 515 kts | 25° |
| 2026-05-07 05:47 | 50.24612 | 12.95029 | 29866 ft | 516 kts | 25° |
| 2026-05-07 05:48 | 50.31140 | 12.99725 | 29864 ft | 517 kts | 25° |
| 2026-05-07 05:48 | 50.37714 | 13.04481 | 29867 ft | 524 kts | 25° |
| 2026-05-07 05:49 | 50.44345 | 13.09283 | 29858 ft | 525 kts | 25° |
| 2026-05-07 05:49 | 50.50972 | 13.14091 | 29837 ft | 525 kts | 25° |
| 2026-05-07 05:50 | 50.57531 | 13.19148 | 29835 ft | 525 kts | 28° |
| 2026-05-07 05:50 | 50.63988 | 13.24463 | 29833 ft | 524 kts | 28° |
| 2026-05-07 05:51 | 50.70457 | 13.29801 | 29837 ft | 524 kts | 28° |
| 2026-05-07 05:51 | 50.76943 | 13.35054 | 29844 ft | 524 kts | 27° |
| 2026-05-07 05:52 | 50.83397 | 13.40260 | 29839 ft | 523 kts | 27° |
| 2026-05-07 05:52 | 50.89881 | 13.45537 | 29861 ft | 523 kts | 28° |
| 2026-05-07 05:52 | 50.93202 | 13.47832 | 29858 ft | 523 kts | 17° |
| 2026-05-07 05:53 | 50.96752 | 13.49016 | 29865 ft | 520 kts | 3° |
| 2026-05-07 05:53 | 51.00355 | 13.48895 | 29867 ft | 515 kts | 348° |
| 2026-05-07 05:53 | 51.03776 | 13.47432 | 29864 ft | 506 kts | 333° |
| 2026-05-07 05:54 | 51.10124 | 13.42706 | 29866 ft | 504 kts | 330° |
| 2026-05-07 05:54 | 51.16478 | 13.37957 | 29881 ft | 502 kts | 332° |
| 2026-05-07 05:54 | 51.19618 | 13.35622 | 29601 ft | 495 kts | 332° |
| 2026-05-07 05:55 | 51.22724 | 13.33311 | 28864 ft | 492 kts | 332° |
| 2026-05-07 05:55 | 51.25847 | 13.30983 | 27907 ft | 491 kts | 333° |
| 2026-05-07 05:55 | 51.28871 | 13.28726 | 27177 ft | 484 kts | 333° |
| 2026-05-07 05:55 | 51.31949 | 13.26420 | 26402 ft | 479 kts | 333° |
| 2026-05-07 05:56 | 51.34912 | 13.24189 | 25656 ft | 475 kts | 333° |
| 2026-05-07 05:56 | 51.37882 | 13.21944 | 24928 ft | 470 kts | 334° |
| 2026-05-07 05:56 | 51.40825 | 13.19722 | 24199 ft | 465 kts | 334° |
| 2026-05-07 05:56 | 51.43733 | 13.17525 | 23537 ft | 458 kts | 334° |
| 2026-05-07 05:57 | 51.46595 | 13.15360 | 22724 ft | 454 kts | 334° |
| 2026-05-07 05:57 | 51.49417 | 13.13221 | 22097 ft | 446 kts | 334° |
| 2026-05-07 05:57 | 51.52198 | 13.11113 | 21459 ft | 439 kts | 334° |
| 2026-05-07 05:57 | 51.54949 | 13.09024 | 20862 ft | 433 kts | 334° |
| 2026-05-07 05:58 | 51.57654 | 13.06970 | 20295 ft | 428 kts | 334° |
| 2026-05-07 05:58 | 51.60330 | 13.04935 | 19730 ft | 422 kts | 334° |
| 2026-05-07 05:58 | 51.62966 | 13.02930 | 19201 ft | 416 kts | 334° |
| 2026-05-07 05:58 | 51.65574 | 13.00946 | 18674 ft | 411 kts | 334° |
| 2026-05-07 05:59 | 51.68142 | 12.98988 | 18176 ft | 407 kts | 334° |
| 2026-05-07 05:59 | 51.70682 | 12.97046 | 17614 ft | 402 kts | 334° |
| 2026-05-07 05:59 | 51.73191 | 12.95123 | 17110 ft | 396 kts | 334° |
| 2026-05-07 05:59 | 51.75673 | 12.93215 | 16594 ft | 392 kts | 334° |
| 2026-05-07 06:00 | 51.78119 | 12.91334 | 16078 ft | 388 kts | 334° |
| 2026-05-07 06:00 | 51.80550 | 12.89465 | 15554 ft | 385 kts | 334° |
| 2026-05-07 06:00 | 51.82957 | 12.87611 | 15026 ft | 382 kts | 334° |
| 2026-05-07 06:00 | 51.85353 | 12.85765 | 14479 ft | 380 kts | 334° |
| 2026-05-07 06:01 | 51.87738 | 12.83955 | 13853 ft | 379 kts | 338° |
| 2026-05-07 06:01 | 51.90232 | 12.82928 | 12806 ft | 373 kts | 355° |
| 2026-05-07 06:01 | 51.92785 | 12.83200 | 11917 ft | 361 kts | 13° |
| 2026-05-07 06:01 | 51.95119 | 12.84123 | 11719 ft | 332 kts | 14° |
| 2026-05-07 06:02 | 51.97288 | 12.84945 | 11555 ft | 308 kts | 13° |
| 2026-05-07 06:02 | 51.99340 | 12.85710 | 11065 ft | 298 kts | 13° |
| 2026-05-07 06:02 | 52.01350 | 12.86457 | 10468 ft | 294 kts | 14° |
| 2026-05-07 06:02 | 52.03324 | 12.87193 | 10077 ft | 287 kts | 14° |
| 2026-05-07 06:03 | 52.05269 | 12.87929 | 9994 ft | 287 kts | 14° |
| 2026-05-07 06:03 | 52.07211 | 12.88673 | 9743 ft | 287 kts | 13° |
| 2026-05-07 06:03 | 52.09172 | 12.89422 | 9359 ft | 285 kts | 13° |
| 2026-05-07 06:03 | 52.11079 | 12.90147 | 8710 ft | 281 kts | 13° |
| 2026-05-07 06:04 | 52.12988 | 12.90876 | 8043 ft | 279 kts | 13° |
| 2026-05-07 06:04 | 52.14857 | 12.91591 | 7447 ft | 274 kts | 13° |
| 2026-05-07 06:04 | 52.16700 | 12.92297 | 6863 ft | 270 kts | 13° |
| 2026-05-07 06:04 | 52.18513 | 12.92994 | 6308 ft | 267 kts | 14° |
| 2026-05-07 06:05 | 52.20248 | 12.93931 | 5753 ft | 262 kts | 28° |
| 2026-05-07 06:05 | 52.21694 | 12.95633 | 5224 ft | 259 kts | 45° |
| 2026-05-07 06:05 | 52.22735 | 12.97983 | 4981 ft | 249 kts | 62° |
| 2026-05-07 06:05 | 52.23377 | 13.00482 | 5005 ft | 231 kts | 68° |
| 2026-05-07 06:06 | 52.23950 | 13.02836 | 5013 ft | 218 kts | 67° |
| 2026-05-07 06:06 | 52.24511 | 13.05136 | 5016 ft | 217 kts | 68° |
| 2026-05-07 06:06 | 52.25068 | 13.07430 | 5018 ft | 218 kts | 67° |
| 2026-05-07 06:06 | 52.25611 | 13.09669 | 4972 ft | 207 kts | 67° |
| 2026-05-07 06:07 | 52.26137 | 13.11840 | 4783 ft | 202 kts | 67° |
| 2026-05-07 06:07 | 52.26643 | 13.13933 | 4504 ft | 196 kts | 68° |
| 2026-05-07 06:07 | 52.27136 | 13.15971 | 4240 ft | 191 kts | 67° |
| 2026-05-07 06:07 | 52.27616 | 13.17957 | 3980 ft | 185 kts | 68° |
| 2026-05-07 06:08 | 52.28081 | 13.19885 | 3734 ft | 179 kts | 68° |
| 2026-05-07 06:08 | 52.28530 | 13.21748 | 3502 ft | 174 kts | 69° |
| 2026-05-07 06:08 | 52.28966 | 13.23559 | 3264 ft | 166 kts | 68° |
| 2026-05-07 06:08 | 52.29370 | 13.25238 | 3044 ft | 156 kts | 69° |
| 2026-05-07 06:09 | 52.29749 | 13.26812 | 2849 ft | 140 kts | 68° |
| 2026-05-07 06:09 | 52.30095 | 13.28251 | 2652 ft | 134 kts | 68° |
| 2026-05-07 06:09 | 52.30426 | 13.29631 | 2478 ft | 131 kts | 69° |
| 2026-05-07 06:09 | 52.30758 | 13.31014 | 2290 ft | 130 kts | 68° |
| 2026-05-07 06:10 | 52.31087 | 13.32384 | 2114 ft | 129 kts | 67° |
| 2026-05-07 06:10 | 52.31414 | 13.33750 | 1931 ft | 129 kts | 68° |
| 2026-05-07 06:10 | 52.31740 | 13.35111 | 1752 ft | 128 kts | 67° |
| 2026-05-07 06:10 | 52.32065 | 13.36469 | 1570 ft | 128 kts | 67° |
| 2026-05-07 06:11 | 52.32388 | 13.37819 | 1393 ft | 128 kts | 67° |
| 2026-05-07 06:11 | 52.32713 | 13.39178 | 1216 ft | 128 kts | 66° |
| 2026-05-07 06:11 | 52.33036 | 13.40528 | 1026 ft | 128 kts | 67° |
| 2026-05-07 06:11 | 52.33360 | 13.41885 | 838 ft | 129 kts | 68° |
| 2026-05-07 06:12 | 52.33685 | 13.43248 | 661 ft | 129 kts | 69° |
| 2026-05-07 06:12 | 52.34010 | 13.44610 | 486 ft | 127 kts | 67° |
| 2026-05-07 06:12 | 52.34330 | 13.45961 | 322 ft | 128 kts | 67° |
| 2026-05-07 06:12 | 52.34650 | 13.47303 | 196 ft | 126 kts | 66° |
| 2026-05-07 06:13 | 52.34923 | 13.48414 | 154 ft | 71 kts | 69° |
| 2026-05-07 06:13 | 52.35038 | 13.48892 | 154 ft | 37 kts | 69° |
| 2026-05-07 06:13 | 52.35135 | 13.49238 | 154 ft | 25 kts | 43° |
| 2026-05-07 06:13 | 52.35241 | 13.49365 | 154 ft | 19 kts | 41° |
| 2026-05-07 06:14 | 52.35267 | 13.49403 | 154 ft | 19 kts | 42° |
| 2026-05-07 06:14 | 52.35273 | 13.49412 | 154 ft | 19 kts | 42° |